createdAt,value
2018-10-19T00:02:19.704Z,25.50
2018-10-19T00:04:48.540Z,24.07
2018-10-19T00:07:18.562Z,26.20
2018-10-19T00:09:47.876Z,31.23
2018-10-19T00:12:18.547Z,25.70
2018-10-19T00:14:48.028Z,28.80
2018-10-19T00:17:17.019Z,28.77
2018-10-19T00:19:45.545Z,30.30
2018-10-19T00:22:14.784Z,27.00
2018-10-19T00:24:44.160Z,25.77
2018-10-19T00:27:13.105Z,26.57
2018-10-19T00:29:42.483Z,26.03
2018-10-19T00:32:13.020Z,26.67
2018-10-19T00:34:41.922Z,26.60
2018-10-19T00:37:10.849Z,35.17
2018-10-19T00:39:39.545Z,27.67
2018-10-19T00:42:08.503Z,25.15
2018-10-19T00:44:37.325Z,25.33
2018-10-19T00:47:06.312Z,29.00
2018-10-19T00:49:35.214Z,25.10
2018-10-19T00:52:04.237Z,25.93
2018-10-19T00:54:33.685Z,25.30
2018-10-19T00:57:03.537Z,27.53
2018-10-19T00:59:32.246Z,23.85
2018-10-19T01:02:01.030Z,26.87
2018-10-19T01:04:30.677Z,30.88
2018-10-19T01:06:59.733Z,27.60
2018-10-19T01:09:29.016Z,24.07
2018-10-19T01:11:58.060Z,27.57
2018-10-19T01:14:26.799Z,26.43
2018-10-19T01:16:55.858Z,22.83
2018-10-19T01:19:25.247Z,27.17
2018-10-19T01:21:55.401Z,28.20
2018-10-19T01:24:24.345Z,28.87
2018-10-19T01:26:53.076Z,38.93
2018-10-19T01:29:21.855Z,26.27
2018-10-19T01:31:51.099Z,24.27
2018-10-19T01:34:19.700Z,23.23
2018-10-19T01:36:48.523Z,22.93
2018-10-19T01:39:17.326Z,23.43
2018-10-19T01:41:46.060Z,24.17
2018-10-19T01:44:16.511Z,27.37
2018-10-19T01:46:49.950Z,25.90
2018-10-19T01:49:19.804Z,32.42
2018-10-19T01:51:48.893Z,25.50
2018-10-19T01:54:17.591Z,26.30
2018-10-19T01:56:46.961Z,24.67
2018-10-19T01:59:15.770Z,28.30
2018-10-19T02:01:45.223Z,26.43
2018-10-19T02:04:14.139Z,29.90
2018-10-19T02:06:43.087Z,35.33
2018-10-19T02:09:13.565Z,27.10
2018-10-19T02:11:42.186Z,27.60
2018-10-19T02:14:11.990Z,32.00
2018-10-19T02:16:41.031Z,25.20
2018-10-19T02:19:10.310Z,24.30
2018-10-19T02:21:39.016Z,25.57
2018-10-19T02:24:07.830Z,24.32
2018-10-19T02:26:36.539Z,22.58
2018-10-19T02:29:06.243Z,28.30
2018-10-19T02:31:35.530Z,32.20
2018-10-19T02:34:04.198Z,34.77
2018-10-19T02:36:33.950Z,32.23
2018-10-19T02:39:03.423Z,29.43
2018-10-19T02:41:32.894Z,24.10
2018-10-19T02:44:01.582Z,25.13
2018-10-19T02:46:30.433Z,28.20
2018-10-19T02:48:59.194Z,27.80
2018-10-19T02:51:28.301Z,30.65
2018-10-19T02:53:57.180Z,25.00
2018-10-19T02:56:26.716Z,24.53
2018-10-19T02:58:55.789Z,23.75
2018-10-19T03:01:25.032Z,26.50
2018-10-19T03:03:54.197Z,29.23
2018-10-19T03:06:23.084Z,27.98
2018-10-19T03:08:52.732Z,25.73
2018-10-19T03:11:21.545Z,28.20
2018-10-19T03:13:50.216Z,24.87
2018-10-19T03:16:19.512Z,26.93
2018-10-19T03:18:48.221Z,26.40
2018-10-19T03:21:18.047Z,27.30
2018-10-19T03:23:47.086Z,31.63
2018-10-19T03:26:16.181Z,26.53
2018-10-19T03:28:45.546Z,24.47
2018-10-19T03:31:14.766Z,28.83
2018-10-19T03:33:43.550Z,25.93
2018-10-19T03:36:13.126Z,26.87
2018-10-19T03:38:42.306Z,29.63
2018-10-19T03:41:11.027Z,30.70
2018-10-19T03:43:40.013Z,26.53
2018-10-19T03:46:08.664Z,26.40
2018-10-19T03:48:37.406Z,25.10
2018-10-19T03:51:07.489Z,27.40
2018-10-19T03:53:36.794Z,27.40
2018-10-19T03:56:05.862Z,26.57
2018-10-19T03:58:34.842Z,29.67
2018-10-19T04:01:04.606Z,29.13
2018-10-19T04:03:33.503Z,27.20
2018-10-19T04:06:02.766Z,26.00
2018-10-19T04:08:32.350Z,27.20
2018-10-19T04:11:01.381Z,27.53
2018-10-19T04:13:30.158Z,31.70
2018-10-19T04:15:59.824Z,27.47
2018-10-19T04:18:28.960Z,35.00
2018-10-19T04:20:57.803Z,26.07
2018-10-19T04:23:27.346Z,32.07
2018-10-19T04:25:56.611Z,46.77
2018-10-19T04:28:25.433Z,32.67
2018-10-19T04:30:55.117Z,32.60
2018-10-19T04:33:23.893Z,28.37
2018-10-19T04:35:53.433Z,31.00
2018-10-19T04:38:23.135Z,27.97
2018-10-19T04:40:53.043Z,28.53
2018-10-19T04:43:21.675Z,29.97
2018-10-19T04:45:50.502Z,32.50
2018-10-19T04:48:19.397Z,33.70
2018-10-19T04:50:48.049Z,32.50
2018-10-19T04:53:17.162Z,33.53
2018-10-19T04:55:46.312Z,34.20
2018-10-19T04:58:15.736Z,27.50
2018-10-19T05:00:44.728Z,25.00
2018-10-19T05:03:14.230Z,30.37
2018-10-19T05:05:42.878Z,29.47
2018-10-19T05:08:13.453Z,29.80
2018-10-19T05:10:42.461Z,26.67
2018-10-19T05:13:11.856Z,30.13
2018-10-19T05:15:41.388Z,28.90
2018-10-19T05:18:10.327Z,34.87
2018-10-19T05:20:39.540Z,35.30
2018-10-19T05:23:09.075Z,33.43
2018-10-19T05:25:38.154Z,28.10
2018-10-19T05:28:07.301Z,30.87
2018-10-19T05:30:36.066Z,30.83
2018-10-19T05:33:04.997Z,29.23
2018-10-19T05:35:33.836Z,31.50
2018-10-19T05:38:03.065Z,31.57
2018-10-19T05:40:31.932Z,31.30
2018-10-19T05:43:00.598Z,36.13
2018-10-19T05:45:29.772Z,38.53
2018-10-19T05:47:59.082Z,33.17
2018-10-19T05:50:27.976Z,35.67
2018-10-19T05:52:57.425Z,32.60
2018-10-19T05:55:26.698Z,33.93
2018-10-19T05:57:55.814Z,41.30
2018-10-19T06:00:26.001Z,34.17
2018-10-19T06:02:55.336Z,35.03
2018-10-19T06:05:24.575Z,32.87
2018-10-19T06:07:53.439Z,31.80
2018-10-19T06:10:22.124Z,39.40
2018-10-19T06:12:51.676Z,36.87
2018-10-19T06:15:20.438Z,36.63
2018-10-19T06:17:49.643Z,33.97
2018-10-19T06:20:18.677Z,41.93
2018-10-19T06:22:48.108Z,39.60
2018-10-19T06:25:16.772Z,36.87
2018-10-19T06:27:45.493Z,32.37
2018-10-19T06:30:14.787Z,32.53
2018-10-19T06:32:44.170Z,36.07
2018-10-19T06:35:13.259Z,33.37
2018-10-19T06:37:42.433Z,35.03
2018-10-19T06:40:11.349Z,37.27
2018-10-19T06:42:41.081Z,39.70
2018-10-19T06:45:11.733Z,36.13
2018-10-19T06:47:41.529Z,38.27
2018-10-19T06:50:12.849Z,35.50
2018-10-19T06:52:42.797Z,38.67
2018-10-19T06:55:14.968Z,58.20
2018-10-19T06:57:43.967Z,39.70
2018-10-19T07:00:13.777Z,40.63
2018-10-19T07:02:42.667Z,39.63
2018-10-19T07:05:11.632Z,51.17
2018-10-19T07:07:40.936Z,41.60
2018-10-19T07:10:10.736Z,41.63
2018-10-19T07:12:40.990Z,47.80
2018-10-19T07:15:11.523Z,35.90
2018-10-19T07:17:40.383Z,46.15
2018-10-19T07:20:10.451Z,41.47
2018-10-19T07:22:39.412Z,42.37
2018-10-19T07:25:08.605Z,43.00
2018-10-19T07:27:38.551Z,40.30
2018-10-19T07:30:07.502Z,62.13
2018-10-19T07:32:37.187Z,47.00
2018-10-19T07:35:08.465Z,38.70
2018-10-19T07:37:38.309Z,47.47
2018-10-19T07:40:07.642Z,45.57
2018-10-19T07:42:37.173Z,52.60
2018-10-19T07:45:06.677Z,57.20
2018-10-19T07:47:35.507Z,56.93
2018-10-19T07:50:04.919Z,57.13
2018-10-19T07:52:33.813Z,58.67
2018-10-19T07:55:03.052Z,56.90
2018-10-19T07:57:32.481Z,62.40
2018-10-19T08:00:01.485Z,52.80
2018-10-19T08:02:31.308Z,45.80
2018-10-19T08:05:00.079Z,51.45
2018-10-19T08:07:29.202Z,49.60
2018-10-19T08:09:58.566Z,40.07
2018-10-19T08:12:27.577Z,39.03
2018-10-19T08:14:57.022Z,38.53
2018-10-19T08:17:26.972Z,38.27
2018-10-19T08:19:55.877Z,35.37
2018-10-19T08:22:24.692Z,34.70
2018-10-19T08:24:54.512Z,36.73
2018-10-19T08:27:23.926Z,40.40
2018-10-19T08:29:54.546Z,36.17
2018-10-19T08:32:23.369Z,35.17
2018-10-19T08:34:52.497Z,32.67
2018-10-19T08:37:21.206Z,32.40
2018-10-19T08:39:50.119Z,32.00
2018-10-19T08:42:19.213Z,33.20
2018-10-19T08:44:48.292Z,32.97
2018-10-19T08:47:17.812Z,36.30
2018-10-19T08:49:47.704Z,38.80
2018-10-19T08:52:16.797Z,39.70
2018-10-19T08:54:45.622Z,41.17
2018-10-19T08:57:14.609Z,41.17
2018-10-19T08:59:43.844Z,42.00
2018-10-19T09:02:12.937Z,44.87
2018-10-19T09:04:42.773Z,50.33
2018-10-19T09:07:12.156Z,47.90
2018-10-19T09:09:40.837Z,47.40
2018-10-19T09:12:10.199Z,46.57
2018-10-19T09:14:51.818Z,51.37
2018-10-19T09:17:20.903Z,43.37
2018-10-19T09:19:51.086Z,49.90
2018-10-19T09:22:20.935Z,45.63
2018-10-19T09:24:50.259Z,45.63
2018-10-19T09:27:19.308Z,53.13
2018-10-19T09:29:48.402Z,46.80
2018-10-19T09:32:17.774Z,43.70
2018-10-19T09:34:46.604Z,43.70
2018-10-19T09:37:15.829Z,45.13
2018-10-19T09:39:45.124Z,44.40
2018-10-19T09:42:13.985Z,44.23
2018-10-19T09:44:43.489Z,44.27
2018-10-19T09:47:12.403Z,43.63
2018-10-19T09:49:41.764Z,45.17
2018-10-19T09:52:11.111Z,42.27
2018-10-19T09:54:40.247Z,42.67
2018-10-19T09:57:09.581Z,41.60
2018-10-19T09:59:38.399Z,38.83
2018-10-19T10:02:07.984Z,39.17
2018-10-19T10:04:37.137Z,38.90
2018-10-19T10:07:06.582Z,38.87
2018-10-19T10:09:35.575Z,37.80
2018-10-19T10:12:04.668Z,38.10
2018-10-19T10:14:33.643Z,38.78
2018-10-19T10:17:02.750Z,37.53
2018-10-19T10:19:32.403Z,39.10
2018-10-19T10:22:01.370Z,42.98
2018-10-19T10:24:30.304Z,39.18
2018-10-19T10:26:59.110Z,40.10
2018-10-19T10:29:27.897Z,42.43
2018-10-19T10:31:56.697Z,38.67
2018-10-19T10:34:25.724Z,37.87
2018-10-19T10:36:54.796Z,37.23
2018-10-19T10:39:24.319Z,36.73
2018-10-19T10:41:53.698Z,36.55
2018-10-19T10:44:22.840Z,39.38
2018-10-19T10:46:52.148Z,39.85
2018-10-19T10:49:21.503Z,39.63
2018-10-19T10:51:51.605Z,39.90
2018-10-19T10:54:20.552Z,40.75
2018-10-19T10:56:50.273Z,39.90
2018-10-19T10:59:19.863Z,38.00
2018-10-19T11:01:49.949Z,36.88
2018-10-19T11:04:19.674Z,45.73
2018-10-19T11:06:49.818Z,40.05
2018-10-19T11:09:19.524Z,37.07
2018-10-19T11:11:49.167Z,37.00
2018-10-19T11:14:19.572Z,37.83
2018-10-19T11:16:48.880Z,37.90
2018-10-19T11:19:17.953Z,39.98
2018-10-19T11:21:47.459Z,39.92
2018-10-19T11:24:17.523Z,38.55
2018-10-19T11:26:48.603Z,92.27
2018-10-19T11:29:17.728Z,41.48
2018-10-19T11:31:46.780Z,41.77
2018-10-19T11:34:15.760Z,44.33
2018-10-19T11:36:44.472Z,45.27
2018-10-19T11:39:13.549Z,50.97
2018-10-19T11:41:42.273Z,43.67
2018-10-19T11:44:11.903Z,44.77
2018-10-19T11:46:41.319Z,47.20
2018-10-19T11:49:09.962Z,46.20
2018-10-19T11:51:39.617Z,47.70
2018-10-19T11:54:08.800Z,47.43
2018-10-19T11:56:38.415Z,46.37
2018-10-19T11:59:07.333Z,48.10
2018-10-19T12:01:37.024Z,49.70
2018-10-19T12:04:06.812Z,51.60
2018-10-19T12:06:35.781Z,53.77
2018-10-19T12:09:08.290Z,55.33
2018-10-19T12:11:37.645Z,56.93
2018-10-19T12:14:06.501Z,56.23
2018-10-19T12:16:35.679Z,54.03
2018-10-19T12:19:05.261Z,52.40
2018-10-19T12:21:34.143Z,52.50
2018-10-19T12:24:03.355Z,51.70
2018-10-19T12:26:32.715Z,51.55
2018-10-19T12:29:01.943Z,50.03
2018-10-19T12:31:31.016Z,49.23
2018-10-19T12:34:00.425Z,48.53
2018-10-19T12:36:29.577Z,49.10
2018-10-19T12:38:58.627Z,46.87
2018-10-19T12:41:27.680Z,52.53
2018-10-19T12:43:57.303Z,50.07
2018-10-19T12:46:41.065Z,48.47
2018-10-19T12:49:10.529Z,54.20
2018-10-19T12:51:39.638Z,48.73
2018-10-19T12:54:08.875Z,47.63
2018-10-19T12:56:37.770Z,49.80
2018-10-19T12:59:07.302Z,51.03
2018-10-19T13:01:36.410Z,49.30
2018-10-19T13:04:06.081Z,51.50
2018-10-19T13:06:34.784Z,52.23
2018-10-19T13:09:06.124Z,56.07
2018-10-19T13:11:35.235Z,54.00
2018-10-19T13:14:04.303Z,59.47
2018-10-19T13:16:33.540Z,59.03
2018-10-19T13:19:02.803Z,65.37
2018-10-19T13:21:31.968Z,63.97
2018-10-19T13:24:01.401Z,68.07
2018-10-19T13:26:30.313Z,69.87
2018-10-19T13:28:59.756Z,63.00
2018-10-19T13:31:28.896Z,66.37
2018-10-19T13:33:57.738Z,62.43
2018-10-19T13:36:26.422Z,64.77
2018-10-19T13:38:55.644Z,69.87
2018-10-19T13:41:24.551Z,68.33
2018-10-19T13:43:53.339Z,62.50
2018-10-19T13:46:22.221Z,62.23
2018-10-19T13:48:51.225Z,63.50
2018-10-19T13:51:20.030Z,65.03
2018-10-19T13:53:48.973Z,68.50
2018-10-19T13:56:18.176Z,71.90
2018-10-19T13:58:47.379Z,64.57
2018-10-19T14:01:16.256Z,61.80
2018-10-19T14:03:45.345Z,63.30
2018-10-19T14:06:15.097Z,59.73
2018-10-19T14:08:45.328Z,68.80
2018-10-19T14:11:14.120Z,66.50
2018-10-19T14:13:42.764Z,69.53
2018-10-19T14:16:11.644Z,64.85
2018-10-19T14:18:41.258Z,64.93
2018-10-19T14:21:10.694Z,71.87
2018-10-19T14:23:39.625Z,81.10
2018-10-19T14:26:09.380Z,67.33
2018-10-19T14:28:38.114Z,69.20
2018-10-19T14:31:08.169Z,70.80
2018-10-19T14:33:37.669Z,66.77
2018-10-19T14:36:06.567Z,70.87
2018-10-19T14:38:36.135Z,71.13
2018-10-19T14:41:05.250Z,62.70
2018-10-19T14:43:34.433Z,70.40
2018-10-19T14:46:03.762Z,69.10
2018-10-19T14:48:32.851Z,63.28
2018-10-19T14:51:01.794Z,67.07
2018-10-19T14:53:30.669Z,63.93
2018-10-19T14:55:59.343Z,65.57
2018-10-19T14:58:28.787Z,66.65
2018-10-19T15:00:57.644Z,72.70
2018-10-19T15:03:26.564Z,70.80
2018-10-19T15:05:55.424Z,65.37
2018-10-19T15:08:24.918Z,72.03
2018-10-19T15:10:54.020Z,66.37
2018-10-19T15:13:23.195Z,69.40
2018-10-19T15:15:52.253Z,62.10
2018-10-19T15:18:21.570Z,81.57
2018-10-19T15:20:50.417Z,69.42
2018-10-19T15:23:19.779Z,81.67
2018-10-19T15:25:49.439Z,72.70
2018-10-19T15:28:18.523Z,65.90
2018-10-19T15:30:47.845Z,77.80
2018-10-19T15:33:17.023Z,73.17
2018-10-19T15:35:46.291Z,63.35
2018-10-19T15:38:15.311Z,69.22
2018-10-19T15:40:44.196Z,84.30
2018-10-19T15:43:12.965Z,69.33
2018-10-19T15:45:42.076Z,73.80
2018-10-19T15:48:12.163Z,72.27
2018-10-19T15:50:41.115Z,69.53
2018-10-19T15:53:11.264Z,65.40
2018-10-19T15:55:40.161Z,67.60
2018-10-19T15:58:09.155Z,71.53
2018-10-19T16:00:38.386Z,63.50
2018-10-19T16:03:07.661Z,69.30
2018-10-19T16:05:36.763Z,73.93
2018-10-19T16:08:06.015Z,61.63
2018-10-19T16:10:35.625Z,72.57
2018-10-19T16:13:04.652Z,70.67
2018-10-19T16:15:33.568Z,74.73
2018-10-19T16:18:04.690Z,72.90
2018-10-19T16:20:33.687Z,68.70
2018-10-19T16:23:03.276Z,83.73
2018-10-19T16:25:32.399Z,63.13
2018-10-19T16:28:01.785Z,73.80
2018-10-19T16:30:32.088Z,71.47
2018-10-19T16:33:02.259Z,74.10
2018-10-19T16:35:31.217Z,68.70
2018-10-19T16:38:00.741Z,80.27
2018-10-19T16:40:29.715Z,83.23
2018-10-19T16:42:59.212Z,76.03
2018-10-19T16:45:28.206Z,75.80
2018-10-19T16:47:57.369Z,79.67
2018-10-19T16:50:26.225Z,70.75
2018-10-19T16:52:55.367Z,66.60
2018-10-19T16:55:24.246Z,70.78
2018-10-19T16:57:54.408Z,79.83
2018-10-19T17:00:23.492Z,72.03
2018-10-19T17:02:52.860Z,85.80
2018-10-19T17:05:22.054Z,79.03
2018-10-19T17:07:51.685Z,74.67
2018-10-19T17:10:20.592Z,84.37
2018-10-19T17:12:49.436Z,81.37
2018-10-19T17:15:19.840Z,80.47
2018-10-19T17:17:49.510Z,77.37
2018-10-19T17:20:18.532Z,77.90
2018-10-19T17:22:47.733Z,86.90
2018-10-19T17:25:17.099Z,79.50
2018-10-19T17:27:45.940Z,85.63
2018-10-19T17:30:15.383Z,76.17
2018-10-19T17:32:44.369Z,84.97
2018-10-19T17:35:13.784Z,75.50
2018-10-19T17:37:42.990Z,75.10
2018-10-19T17:40:12.167Z,87.40
2018-10-19T17:42:41.341Z,95.70
2018-10-19T17:45:11.637Z,79.93
2018-10-19T17:47:42.700Z,91.80
2018-10-19T17:50:12.523Z,89.63
2018-10-19T17:52:42.215Z,88.73
2018-10-19T17:55:12.905Z,80.20
2018-10-19T17:57:42.083Z,83.50
2018-10-19T18:00:13.327Z,81.13
2018-10-19T18:02:43.090Z,82.77
2018-10-19T18:05:12.154Z,70.93
2018-10-19T18:07:41.483Z,76.43
2018-10-19T18:10:13.508Z,72.73
2018-10-19T18:12:42.998Z,79.40
2018-10-19T18:15:13.421Z,79.43
2018-10-19T18:17:43.198Z,73.87
2018-10-19T18:20:12.507Z,71.30
2018-10-19T18:22:42.889Z,80.22
2018-10-19T18:25:12.907Z,71.97
2018-10-19T18:27:43.062Z,71.97
2018-10-19T18:30:13.170Z,74.30
2018-10-19T18:32:43.298Z,69.77
2018-10-19T18:35:12.819Z,72.13
2018-10-19T18:37:42.223Z,68.05
2018-10-19T18:40:12.345Z,66.83
2018-10-19T18:42:41.545Z,72.03
2018-10-19T18:45:10.958Z,77.60
2018-10-19T18:47:40.835Z,75.67
2018-10-19T18:50:10.129Z,74.57
2018-10-19T18:52:39.903Z,72.47
2018-10-19T18:55:08.870Z,65.70
2018-10-19T18:57:37.674Z,65.33
2018-10-19T19:00:08.917Z,67.77
2018-10-19T19:02:37.993Z,69.17
2018-10-19T19:05:07.453Z,80.57
2018-10-19T19:07:37.832Z,67.10
2018-10-19T19:10:11.296Z,66.67
2018-10-19T19:12:40.840Z,80.47
2018-10-19T19:15:10.485Z,62.90
2018-10-19T19:17:39.901Z,70.77
2018-10-19T19:20:14.512Z,87.27
2018-10-19T19:22:43.723Z,99.73
2018-10-19T19:25:18.572Z,75.67
2018-10-19T19:27:48.322Z,65.95
2018-10-19T19:30:18.022Z,66.93
2018-10-19T19:32:51.952Z,71.97
2018-10-19T19:35:20.898Z,74.50
2018-10-19T19:37:50.065Z,86.53
2018-10-19T19:40:19.588Z,87.53
2018-10-19T19:42:54.207Z,74.60
2018-10-19T19:45:24.130Z,82.03
2018-10-19T19:47:58.422Z,71.00
2018-10-19T19:50:27.495Z,80.77
2018-10-19T19:52:56.526Z,78.43
2018-10-19T19:55:26.251Z,68.33
2018-10-19T19:57:55.208Z,79.07
2018-10-19T20:00:24.256Z,74.07
2018-10-19T20:02:53.408Z,79.00
2018-10-19T20:05:22.457Z,70.20
2018-10-19T20:07:51.673Z,71.45
2018-10-19T20:10:21.197Z,81.03
2018-10-19T20:12:50.261Z,77.53
2018-10-19T20:15:19.800Z,75.20
2018-10-19T20:17:48.781Z,75.70
2018-10-19T20:20:18.917Z,70.63
2018-10-19T20:22:48.028Z,67.13
2018-10-19T20:25:17.604Z,74.97
2018-10-19T20:27:46.773Z,64.23
2018-10-19T20:30:15.930Z,59.93
2018-10-19T20:32:45.345Z,67.22
2018-10-19T20:35:14.515Z,68.30
2018-10-19T20:37:43.678Z,65.57
2018-10-19T20:40:12.691Z,72.77
2018-10-19T20:42:42.232Z,65.87
2018-10-19T20:45:11.216Z,71.33
2018-10-19T20:47:40.171Z,76.57
2018-10-19T20:50:10.542Z,75.30
2018-10-19T20:52:39.368Z,61.50
2018-10-19T20:55:10.016Z,76.57
2018-10-19T20:57:38.987Z,73.20
2018-10-19T21:00:08.994Z,73.95
2018-10-19T21:02:37.922Z,88.50
2018-10-19T21:05:07.683Z,74.20
2018-10-19T21:07:36.773Z,86.03
2018-10-19T21:10:07.507Z,79.50
2018-10-19T21:12:36.729Z,70.90
2018-10-19T21:15:06.493Z,80.30
2018-10-19T21:17:36.315Z,87.50
2018-10-19T21:20:05.452Z,75.20
2018-10-19T21:22:34.799Z,80.60
2018-10-19T21:25:03.788Z,75.80
2018-10-19T21:27:32.697Z,82.00
2018-10-19T21:30:01.903Z,67.77
2018-10-19T21:32:30.754Z,76.10
2018-10-19T21:34:59.561Z,82.43
2018-10-19T21:37:28.631Z,65.00
2018-10-19T21:39:57.954Z,74.70
2018-10-19T21:42:26.998Z,68.13
2018-10-19T21:44:56.319Z,70.63
2018-10-19T21:47:25.903Z,65.23
2018-10-19T21:49:54.903Z,72.08
2018-10-19T21:52:24.039Z,61.97
2018-10-19T21:54:53.088Z,74.33
2018-10-19T21:57:22.239Z,62.73
2018-10-19T21:59:51.847Z,73.83
2018-10-19T22:02:20.942Z,66.02
2018-10-19T22:04:49.766Z,66.47
2018-10-19T22:07:19.244Z,67.10
2018-10-19T22:09:48.617Z,66.33
2018-10-19T22:12:17.386Z,74.23
2018-10-19T22:14:46.916Z,72.70
2018-10-19T22:17:16.322Z,72.90
2018-10-19T22:19:45.493Z,72.27
2018-10-19T22:22:15.218Z,64.73
2018-10-19T22:24:44.616Z,70.90
2018-10-19T22:27:14.131Z,67.87
2018-10-19T22:29:42.950Z,56.37
2018-10-19T22:32:11.974Z,61.27
2018-10-19T22:34:40.783Z,72.90
2018-10-19T22:37:10.094Z,63.00
2018-10-19T22:39:38.999Z,68.20
2018-10-19T22:42:08.004Z,75.47
2018-10-19T22:44:37.669Z,65.20
2018-10-19T22:47:06.950Z,73.80
2018-10-19T22:49:36.087Z,88.73
2018-10-19T22:52:05.603Z,74.27
2018-10-19T22:54:34.961Z,77.53
2018-10-19T22:57:03.795Z,72.43
2018-10-19T22:59:32.598Z,74.37
2018-10-19T23:02:02.232Z,80.23
2018-10-19T23:04:31.141Z,70.43
2018-10-19T23:07:00.832Z,73.07
2018-10-19T23:09:31.993Z,72.10
2018-10-19T23:12:02.218Z,75.93
2018-10-19T23:14:31.247Z,68.33
2018-10-19T23:17:00.512Z,66.50
2018-10-19T23:19:29.782Z,73.60
2018-10-19T23:21:58.579Z,74.40
2018-10-19T23:24:28.341Z,70.60
2018-10-19T23:26:57.567Z,80.00
2018-10-19T23:29:26.565Z,82.63
2018-10-19T23:31:56.308Z,77.70
2018-10-19T23:34:25.461Z,78.17
2018-10-19T23:37:02.172Z,72.17
2018-10-19T23:39:31.375Z,70.43
2018-10-19T23:42:00.633Z,72.27
2018-10-19T23:44:29.773Z,65.70
2018-10-19T23:46:58.569Z,65.87
2018-10-19T23:49:27.448Z,67.90
2018-10-19T23:51:56.604Z,71.57
2018-10-19T23:54:25.635Z,76.57
2018-10-19T23:56:54.678Z,66.17
2018-10-19T23:59:24.121Z,75.87
